sensor_id;sensor_type;location;lat;lon;timestamp;temperature;humidity
25360;DHT22;13311;51.386;0.016;2023-05-10T00:03:41;15.60;98.20
25360;DHT22;13311;51.386;0.016;2023-05-10T00:08:42;15.50;98.30
25360;DHT22;13311;51.386;0.016;2023-05-10T00:13:42;15.50;98.50
25360;DHT22;13311;51.386;0.016;2023-05-10T00:18:43;15.40;98.60
25360;DHT22;13311;51.386;0.016;2023-05-10T00:23:44;15.40;98.60
25360;DHT22;13311;51.386;0.016;2023-05-10T00:28:47;15.40;98.60
25360;DHT22;13311;51.386;0.016;2023-05-10T00:33:48;15.40;98.70
25360;DHT22;13311;51.386;0.016;2023-05-10T00:38:48;15.40;98.80
25360;DHT22;13311;51.386;0.016;2023-05-10T00:43:49;15.40;98.70
25360;DHT22;13311;51.386;0.016;2023-05-10T00:48:50;15.50;98.80
25360;DHT22;13311;51.386;0.016;2023-05-10T00:53:51;15.50;98.90
25360;DHT22;13311;51.386;0.016;2023-05-10T00:58:52;15.60;98.80
25360;DHT22;13311;51.386;0.016;2023-05-10T01:03:53;15.60;98.70
25360;DHT22;13311;51.386;0.016;2023-05-10T01:08:55;15.60;98.70
25360;DHT22;13311;51.386;0.016;2023-05-10T01:13:57;15.70;98.70
25360;DHT22;13311;51.386;0.016;2023-05-10T01:18:58;15.70;98.80
25360;DHT22;13311;51.386;0.016;2023-05-10T01:30:05;15.70;98.90
25360;DHT22;13311;51.386;0.016;2023-05-10T01:35:30;15.80;98.90
25360;DHT22;13311;51.386;0.016;2023-05-10T01:41:18;15.70;98.90
25360;DHT22;13311;51.386;0.016;2023-05-10T01:46:39;15.70;99.00
25360;DHT22;13311;51.386;0.016;2023-05-10T01:51:45;15.70;99.10
25360;DHT22;13311;51.386;0.016;2023-05-10T01:56:56;15.70;99.10
25360;DHT22;13311;51.386;0.016;2023-05-10T02:02:01;15.80;99.00
25360;DHT22;13311;51.386;0.016;2023-05-10T02:07:02;15.80;98.90
25360;DHT22;13311;51.386;0.016;2023-05-10T02:12:05;15.80;98.90
25360;DHT22;13311;51.386;0.016;2023-05-10T02:17:07;15.80;98.90
25360;DHT22;13311;51.386;0.016;2023-05-10T02:22:09;15.70;99.00
25360;DHT22;13311;51.386;0.016;2023-05-10T02:27:12;15.80;99.00
25360;DHT22;13311;51.386;0.016;2023-05-10T02:32:14;15.80;98.90
25360;DHT22;13311;51.386;0.016;2023-05-10T02:37:15;15.70;98.80
25360;DHT22;13311;51.386;0.016;2023-05-10T02:42:22;15.70;99.00
25360;DHT22;13311;51.386;0.016;2023-05-10T02:47:24;15.60;98.90
25360;DHT22;13311;51.386;0.016;2023-05-10T02:52:27;15.50;99.10
25360;DHT22;13311;51.386;0.016;2023-05-10T02:57:33;15.50;99.20
25360;DHT22;13311;51.386;0.016;2023-05-10T03:02:34;15.50;99.30
25360;DHT22;13311;51.386;0.016;2023-05-10T03:07:36;15.40;99.20
25360;DHT22;13311;51.386;0.016;2023-05-10T03:12:49;15.40;99.40
25360;DHT22;13311;51.386;0.016;2023-05-10T03:18:15;15.40;99.30
25360;DHT22;13311;51.386;0.016;2023-05-10T03:23:30;15.40;99.30
25360;DHT22;13311;51.386;0.016;2023-05-10T03:28:36;15.50;99.30
25360;DHT22;13311;51.386;0.016;2023-05-10T03:33:49;15.50;99.10
25360;DHT22;13311;51.386;0.016;2023-05-10T03:38:50;15.50;99.20
25360;DHT22;13311;51.386;0.016;2023-05-10T03:43:51;15.40;99.60
25360;DHT22;13311;51.386;0.016;2023-05-10T03:48:52;15.30;99.40
25360;DHT22;13311;51.386;0.016;2023-05-10T03:53:52;15.30;99.40
25360;DHT22;13311;51.386;0.016;2023-05-10T03:58:53;15.30;99.40
25360;DHT22;13311;51.386;0.016;2023-05-10T04:03:54;15.30;99.50
25360;DHT22;13311;51.386;0.016;2023-05-10T04:08:54;15.30;99.40
25360;DHT22;13311;51.386;0.016;2023-05-10T04:13:55;15.30;99.40
25360;DHT22;13311;51.386;0.016;2023-05-10T04:18:56;15.30;99.40
25360;DHT22;13311;51.386;0.016;2023-05-10T04:23:57;15.20;99.40
25360;DHT22;13311;51.386;0.016;2023-05-10T04:28:58;15.20;99.30
25360;DHT22;13311;51.386;0.016;2023-05-10T04:33:59;15.20;99.30
25360;DHT22;13311;51.386;0.016;2023-05-10T04:38:59;15.10;99.20
25360;DHT22;13311;51.386;0.016;2023-05-10T04:44:00;15.10;99.30
25360;DHT22;13311;51.386;0.016;2023-05-10T04:49:01;15.10;99.30
25360;DHT22;13311;51.386;0.016;2023-05-10T04:54:02;15.00;99.20
25360;DHT22;13311;51.386;0.016;2023-05-10T04:59:03;15.00;99.10
25360;DHT22;13311;51.386;0.016;2023-05-10T05:04:04;15.00;99.20
25360;DHT22;13311;51.386;0.016;2023-05-10T05:09:05;14.90;99.20
25360;DHT22;13311;51.386;0.016;2023-05-10T05:14:05;15.00;99.00
25360;DHT22;13311;51.386;0.016;2023-05-10T05:19:06;15.00;99.10
25360;DHT22;13311;51.386;0.016;2023-05-10T05:24:07;15.00;99.20
25360;DHT22;13311;51.386;0.016;2023-05-10T05:29:08;15.00;99.20
25360;DHT22;13311;51.386;0.016;2023-05-10T05:34:08;15.20;99.60
25360;DHT22;13311;51.386;0.016;2023-05-10T05:39:09;15.40;99.40
25360;DHT22;13311;51.386;0.016;2023-05-10T05:44:10;15.70;99.30
25360;DHT22;13311;51.386;0.016;2023-05-10T05:49:11;15.90;98.40
25360;DHT22;13311;51.386;0.016;2023-05-10T05:54:12;16.00;97.90
25360;DHT22;13311;51.386;0.016;2023-05-10T05:59:13;16.10;97.50
25360;DHT22;13311;51.386;0.016;2023-05-10T06:04:14;16.20;97.10
25360;DHT22;13311;51.386;0.016;2023-05-10T06:09:15;16.20;96.90
25360;DHT22;13311;51.386;0.016;2023-05-10T06:14:16;16.20;96.80
25360;DHT22;13311;51.386;0.016;2023-05-10T06:19:16;16.20;96.60
25360;DHT22;13311;51.386;0.016;2023-05-10T06:24:17;16.10;96.60
25360;DHT22;13311;51.386;0.016;2023-05-10T06:29:18;16.10;96.80
25360;DHT22;13311;51.386;0.016;2023-05-10T06:34:18;16.20;96.60
25360;DHT22;13311;51.386;0.016;2023-05-10T06:39:19;16.10;96.80
25360;DHT22;13311;51.386;0.016;2023-05-10T06:44:20;16.30;97.80
25360;DHT22;13311;51.386;0.016;2023-05-10T06:49:21;16.80;96.60
25360;DHT22;13311;51.386;0.016;2023-05-10T06:54:22;17.00;95.80
25360;DHT22;13311;51.386;0.016;2023-05-10T06:59:23;17.30;95.60
25360;DHT22;13311;51.386;0.016;2023-05-10T07:04:24;17.60;95.60
25360;DHT22;13311;51.386;0.016;2023-05-10T07:09:25;17.90;95.00
25360;DHT22;13311;51.386;0.016;2023-05-10T07:14:25;18.10;94.80
25360;DHT22;13311;51.386;0.016;2023-05-10T07:19:26;18.40;95.00
25360;DHT22;13311;51.386;0.016;2023-05-10T07:24:27;19.00;94.30
25360;DHT22;13311;51.386;0.016;2023-05-10T07:29:27;19.50;92.90
25360;DHT22;13311;51.386;0.016;2023-05-10T07:34:28;19.80;92.50
25360;DHT22;13311;51.386;0.016;2023-05-10T07:39:30;20.00;91.80
25360;DHT22;13311;51.386;0.016;2023-05-10T07:44:31;20.30;91.80
25360;DHT22;13311;51.386;0.016;2023-05-10T07:49:32;20.50;91.30
25360;DHT22;13311;51.386;0.016;2023-05-10T07:54:32;20.80;90.20
25360;DHT22;13311;51.386;0.016;2023-05-10T07:59:34;20.90;90.40
25360;DHT22;13311;51.386;0.016;2023-05-10T08:04:34;21.00;90.50
25360;DHT22;13311;51.386;0.016;2023-05-10T08:09:35;21.30;89.50
25360;DHT22;13311;51.386;0.016;2023-05-10T08:14:36;21.40;89.80
25360;DHT22;13311;51.386;0.016;2023-05-10T08:19:37;21.60;88.70
25360;DHT22;13311;51.386;0.016;2023-05-10T08:24:38;21.70;88.90
25360;DHT22;13311;51.386;0.016;2023-05-10T08:29:39;21.80;88.80
25360;DHT22;13311;51.386;0.016;2023-05-10T08:34:40;21.80;87.80
25360;DHT22;13311;51.386;0.016;2023-05-10T08:39:40;21.80;89.20
25360;DHT22;13311;51.386;0.016;2023-05-10T08:44:42;21.80;88.70
25360;DHT22;13311;51.386;0.016;2023-05-10T08:49:44;21.80;88.70
25360;DHT22;13311;51.386;0.016;2023-05-10T08:54:48;22.00;87.80
25360;DHT22;13311;51.386;0.016;2023-05-10T08:59:49;22.10;87.30
25360;DHT22;13311;51.386;0.016;2023-05-10T09:04:49;22.20;87.40
25360;DHT22;13311;51.386;0.016;2023-05-10T09:09:50;22.30;87.90
25360;DHT22;13311;51.386;0.016;2023-05-10T09:14:52;22.20;89.80
25360;DHT22;13311;51.386;0.016;2023-05-10T09:19:58;21.90;90.70
25360;DHT22;13311;51.386;0.016;2023-05-10T09:25:24;22.00;89.20
25360;DHT22;13311;51.386;0.016;2023-05-10T09:30:28;22.30;86.70
25360;DHT22;13311;51.386;0.016;2023-05-10T09:35:32;22.70;87.40
25360;DHT22;13311;51.386;0.016;2023-05-10T09:40:33;22.90;85.80
25360;DHT22;13311;51.386;0.016;2023-05-10T09:45:35;23.10;85.00
25360;DHT22;13311;51.386;0.016;2023-05-10T09:50:36;23.20;84.80
25360;DHT22;13311;51.386;0.016;2023-05-10T09:55:41;23.40;82.60
25360;DHT22;13311;51.386;0.016;2023-05-10T10:00:47;23.60;82.40
25360;DHT22;13311;51.386;0.016;2023-05-10T10:05:51;23.70;83.20
25360;DHT22;13311;51.386;0.016;2023-05-10T10:10:53;23.80;79.50
25360;DHT22;13311;51.386;0.016;2023-05-10T10:15:54;23.70;87.00
25360;DHT22;13311;51.386;0.016;2023-05-10T10:20:56;23.40;88.00
25360;DHT22;13311;51.386;0.016;2023-05-10T10:25:57;23.60;81.10
25360;DHT22;13311;51.386;0.016;2023-05-10T10:31:03;23.80;80.00
25360;DHT22;13311;51.386;0.016;2023-05-10T10:36:16;24.00;85.80
25360;DHT22;13311;51.386;0.016;2023-05-10T10:41:33;23.60;84.00
25360;DHT22;13311;51.386;0.016;2023-05-10T10:46:58;23.70;88.40
25360;DHT22;13311;51.386;0.016;2023-05-10T10:57:33;23.40;88.30
25360;DHT22;13311;51.386;0.016;2023-05-10T11:07:56;23.20;89.70
25360;DHT22;13311;51.386;0.016;2023-05-10T11:18:28;23.70;84.20
25360;DHT22;13311;51.386;0.016;2023-05-10T11:28:48;24.00;84.70
25360;DHT22;13311;51.386;0.016;2023-05-10T11:33:51;24.30;83.40
25360;DHT22;13311;51.386;0.016;2023-05-10T11:38:56;24.70;85.50
25360;DHT22;13311;51.386;0.016;2023-05-10T11:43:57;24.80;78.50
25360;DHT22;13311;51.386;0.016;2023-05-10T11:49:00;25.00;77.20
25360;DHT22;13311;51.386;0.016;2023-05-10T11:54:06;24.90;71.30
25360;DHT22;13311;51.386;0.016;2023-05-10T11:59:10;24.90;78.80
25360;DHT22;13311;51.386;0.016;2023-05-10T12:04:14;25.00;77.70
25360;DHT22;13311;51.386;0.016;2023-05-10T12:09:15;25.00;81.80
25360;DHT22;13311;51.386;0.016;2023-05-10T12:14:16;25.00;77.80
25360;DHT22;13311;51.386;0.016;2023-05-10T12:19:20;24.90;67.50
25360;DHT22;13311;51.386;0.016;2023-05-10T12:24:21;25.10;73.90
25360;DHT22;13311;51.386;0.016;2023-05-10T12:29:22;25.00;73.40
25360;DHT22;13311;51.386;0.016;2023-05-10T12:34:33;25.00;70.90
25360;DHT22;13311;51.386;0.016;2023-05-10T12:39:42;25.00;71.10
25360;DHT22;13311;51.386;0.016;2023-05-10T12:44:43;24.80;67.10
25360;DHT22;13311;51.386;0.016;2023-05-10T12:49:44;24.90;75.70
25360;DHT22;13311;51.386;0.016;2023-05-10T12:54:45;24.80;68.50
25360;DHT22;13311;51.386;0.016;2023-05-10T12:59:46;24.80;71.90
25360;DHT22;13311;51.386;0.016;2023-05-10T13:04:48;24.60;66.20
25360;DHT22;13311;51.386;0.016;2023-05-10T13:09:48;24.40;69.40
25360;DHT22;13311;51.386;0.016;2023-05-10T13:14:49;24.30;70.60
25360;DHT22;13311;51.386;0.016;2023-05-10T13:19:50;24.30;69.20
25360;DHT22;13311;51.386;0.016;2023-05-10T13:24:50;24.20;70.80
25360;DHT22;13311;51.386;0.016;2023-05-10T13:29:51;24.20;71.80
25360;DHT22;13311;51.386;0.016;2023-05-10T13:34:52;24.30;72.90
25360;DHT22;13311;51.386;0.016;2023-05-10T13:39:52;24.30;71.90
25360;DHT22;13311;51.386;0.016;2023-05-10T13:44:53;24.40;71.60
25360;DHT22;13311;51.386;0.016;2023-05-10T13:49:54;24.30;69.10
25360;DHT22;13311;51.386;0.016;2023-05-10T13:54:55;24.40;74.30
25360;DHT22;13311;51.386;0.016;2023-05-10T13:59:55;24.20;80.30
25360;DHT22;13311;51.386;0.016;2023-05-10T14:04:57;23.90;78.60
25360;DHT22;13311;51.386;0.016;2023-05-10T14:09:58;23.70;82.60
25360;DHT22;13311;51.386;0.016;2023-05-10T14:14:58;23.20;83.50
25360;DHT22;13311;51.386;0.016;2023-05-10T14:19:59;22.90;84.90
25360;DHT22;13311;51.386;0.016;2023-05-10T14:25:00;22.60;87.10
25360;DHT22;13311;51.386;0.016;2023-05-10T14:30:01;22.50;89.30
25360;DHT22;13311;51.386;0.016;2023-05-10T14:35:02;22.30;90.00
25360;DHT22;13311;51.386;0.016;2023-05-10T14:40:03;22.30;90.80
25360;DHT22;13311;51.386;0.016;2023-05-10T14:45:05;22.40;90.50
25360;DHT22;13311;51.386;0.016;2023-05-10T14:50:06;22.60;90.50
25360;DHT22;13311;51.386;0.016;2023-05-10T14:55:08;22.70;86.00
25360;DHT22;13311;51.386;0.016;2023-05-10T15:00:09;23.00;87.90
25360;DHT22;13311;51.386;0.016;2023-05-10T15:05:10;23.20;84.40
25360;DHT22;13311;51.386;0.016;2023-05-10T15:10:11;23.40;83.50
25360;DHT22;13311;51.386;0.016;2023-05-10T15:15:12;23.50;83.90
25360;DHT22;13311;51.386;0.016;2023-05-10T15:20:13;23.50;80.80
25360;DHT22;13311;51.386;0.016;2023-05-10T15:25:13;23.40;79.10
25360;DHT22;13311;51.386;0.016;2023-05-10T15:30:16;23.30;80.00
25360;DHT22;13311;51.386;0.016;2023-05-10T15:35:17;23.20;80.60
25360;DHT22;13311;51.386;0.016;2023-05-10T15:40:17;22.90;84.10
25360;DHT22;13311;51.386;0.016;2023-05-10T15:45:18;22.90;85.30
25360;DHT22;13311;51.386;0.016;2023-05-10T15:50:20;22.90;84.50
25360;DHT22;13311;51.386;0.016;2023-05-10T15:55:20;22.90;82.00
25360;DHT22;13311;51.386;0.016;2023-05-10T16:00:21;23.00;81.50
25360;DHT22;13311;51.386;0.016;2023-05-10T16:05:22;23.00;81.30
25360;DHT22;13311;51.386;0.016;2023-05-10T16:10:22;22.80;78.50
25360;DHT22;13311;51.386;0.016;2023-05-10T16:15:23;22.60;77.40
25360;DHT22;13311;51.386;0.016;2023-05-10T16:20:24;22.50;77.60
25360;DHT22;13311;51.386;0.016;2023-05-10T16:25:25;22.30;77.90
25360;DHT22;13311;51.386;0.016;2023-05-10T16:30:26;22.30;80.80
25360;DHT22;13311;51.386;0.016;2023-05-10T16:35:29;22.00;81.20
25360;DHT22;13311;51.386;0.016;2023-05-10T16:40:30;21.60;84.00
25360;DHT22;13311;51.386;0.016;2023-05-10T16:45:31;21.20;86.50
25360;DHT22;13311;51.386;0.016;2023-05-10T16:50:32;20.90;89.10
25360;DHT22;13311;51.386;0.016;2023-05-10T16:55:33;20.60;90.50
25360;DHT22;13311;51.386;0.016;2023-05-10T17:00:33;20.60;90.70
25360;DHT22;13311;51.386;0.016;2023-05-10T17:05:34;20.50;91.20
25360;DHT22;13311;51.386;0.016;2023-05-10T17:10:38;20.30;91.60
25360;DHT22;13311;51.386;0.016;2023-05-10T17:15:39;20.20;91.50
25360;DHT22;13311;51.386;0.016;2023-05-10T17:20:42;20.10;92.20
25360;DHT22;13311;51.386;0.016;2023-05-10T17:25:44;19.90;92.60
25360;DHT22;13311;51.386;0.016;2023-05-10T17:30:45;19.80;92.30
25360;DHT22;13311;51.386;0.016;2023-05-10T17:35:45;19.70;92.60
25360;DHT22;13311;51.386;0.016;2023-05-10T17:40:46;19.60;92.60
25360;DHT22;13311;51.386;0.016;2023-05-10T17:45:48;19.50;93.30
25360;DHT22;13311;51.386;0.016;2023-05-10T17:50:49;19.30;93.70
25360;DHT22;13311;51.386;0.016;2023-05-10T17:55:50;19.20;93.60
25360;DHT22;13311;51.386;0.016;2023-05-10T18:00:52;19.20;93.70
25360;DHT22;13311;51.386;0.016;2023-05-10T18:05:53;19.20;94.10
25360;DHT22;13311;51.386;0.016;2023-05-10T18:10:55;19.20;94.00
25360;DHT22;13311;51.386;0.016;2023-05-10T18:15:56;19.10;93.80
25360;DHT22;13311;51.386;0.016;2023-05-10T18:20:57;19.10;94.10
25360;DHT22;13311;51.386;0.016;2023-05-10T18:25:57;19.00;94.60
25360;DHT22;13311;51.386;0.016;2023-05-10T18:30:58;19.00;94.80
25360;DHT22;13311;51.386;0.016;2023-05-10T18:35:59;19.00;95.10
25360;DHT22;13311;51.386;0.016;2023-05-10T18:41:00;19.10;95.20
25360;DHT22;13311;51.386;0.016;2023-05-10T18:46:00;19.20;94.90
25360;DHT22;13311;51.386;0.016;2023-05-10T18:51:01;19.10;94.40
25360;DHT22;13311;51.386;0.016;2023-05-10T18:56:03;19.00;95.30
25360;DHT22;13311;51.386;0.016;2023-05-10T19:01:12;19.00;95.20
25360;DHT22;13311;51.386;0.016;2023-05-10T19:06:13;18.90;95.80
25360;DHT22;13311;51.386;0.016;2023-05-10T19:11:14;18.90;95.90
25360;DHT22;13311;51.386;0.016;2023-05-10T19:16:15;19.00;95.80
25360;DHT22;13311;51.386;0.016;2023-05-10T19:21:16;19.00;95.60
25360;DHT22;13311;51.386;0.016;2023-05-10T19:26:17;19.00;95.40
25360;DHT22;13311;51.386;0.016;2023-05-10T19:31:18;18.90;95.30
25360;DHT22;13311;51.386;0.016;2023-05-10T19:36:19;18.80;95.10
25360;DHT22;13311;51.386;0.016;2023-05-10T19:41:20;18.70;95.50
25360;DHT22;13311;51.386;0.016;2023-05-10T19:46:21;18.60;95.80
25360;DHT22;13311;51.386;0.016;2023-05-10T19:51:22;18.50;95.90
25360;DHT22;13311;51.386;0.016;2023-05-10T19:56:22;18.40;96.00
25360;DHT22;13311;51.386;0.016;2023-05-10T20:01:23;18.40;96.20
25360;DHT22;13311;51.386;0.016;2023-05-10T20:06:24;18.30;96.20
25360;DHT22;13311;51.386;0.016;2023-05-10T20:11:24;18.10;96.50
25360;DHT22;13311;51.386;0.016;2023-05-10T20:16:25;18.00;96.30
25360;DHT22;13311;51.386;0.016;2023-05-10T20:21:26;18.10;96.70
25360;DHT22;13311;51.386;0.016;2023-05-10T20:26:26;18.10;96.70
25360;DHT22;13311;51.386;0.016;2023-05-10T20:31:27;18.20;96.10
25360;DHT22;13311;51.386;0.016;2023-05-10T20:36:28;18.30;95.10
25360;DHT22;13311;51.386;0.016;2023-05-10T20:41:29;18.30;94.00
25360;DHT22;13311;51.386;0.016;2023-05-10T20:46:30;18.00;94.10
25360;DHT22;13311;51.386;0.016;2023-05-10T20:51:31;17.80;94.50
25360;DHT22;13311;51.386;0.016;2023-05-10T20:56:32;17.70;94.80
25360;DHT22;13311;51.386;0.016;2023-05-10T21:01:34;17.60;95.00
25360;DHT22;13311;51.386;0.016;2023-05-10T21:06:34;17.50;95.30
25360;DHT22;13311;51.386;0.016;2023-05-10T21:11:35;17.50;95.90
25360;DHT22;13311;51.386;0.016;2023-05-10T21:16:37;17.50;95.90
25360;DHT22;13311;51.386;0.016;2023-05-10T21:21:38;17.50;96.00
25360;DHT22;13311;51.386;0.016;2023-05-10T21:26:39;17.50;95.90
25360;DHT22;13311;51.386;0.016;2023-05-10T21:31:41;17.50;96.70
25360;DHT22;13311;51.386;0.016;2023-05-10T21:36:41;17.50;96.80
25360;DHT22;13311;51.386;0.016;2023-05-10T21:41:42;17.50;96.60
25360;DHT22;13311;51.386;0.016;2023-05-10T21:46:43;17.40;96.50
25360;DHT22;13311;51.386;0.016;2023-05-10T21:51:43;17.40;96.90
25360;DHT22;13311;51.386;0.016;2023-05-10T21:56:44;17.40;96.70
25360;DHT22;13311;51.386;0.016;2023-05-10T22:01:45;17.30;96.40
25360;DHT22;13311;51.386;0.016;2023-05-10T22:06:45;17.20;96.30
25360;DHT22;13311;51.386;0.016;2023-05-10T22:11:47;17.10;96.20
25360;DHT22;13311;51.386;0.016;2023-05-10T22:16:47;17.00;96.20
25360;DHT22;13311;51.386;0.016;2023-05-10T22:21:48;16.90;96.30
25360;DHT22;13311;51.386;0.016;2023-05-10T22:26:49;16.70;96.30
25360;DHT22;13311;51.386;0.016;2023-05-10T22:31:50;16.60;96.40
25360;DHT22;13311;51.386;0.016;2023-05-10T22:36:50;16.50;96.00
25360;DHT22;13311;51.386;0.016;2023-05-10T22:41:51;16.50;95.90
25360;DHT22;13311;51.386;0.016;2023-05-10T22:46:52;16.30;95.70
25360;DHT22;13311;51.386;0.016;2023-05-10T22:51:53;16.20;95.60
25360;DHT22;13311;51.386;0.016;2023-05-10T22:56:54;16.10;95.40
25360;DHT22;13311;51.386;0.016;2023-05-10T23:01:55;16.10;95.40
25360;DHT22;13311;51.386;0.016;2023-05-10T23:06:56;16.00;95.30
25360;DHT22;13311;51.386;0.016;2023-05-10T23:11:57;15.90;95.10
25360;DHT22;13311;51.386;0.016;2023-05-10T23:16:57;15.80;94.90
25360;DHT22;13311;51.386;0.016;2023-05-10T23:21:58;15.80;94.80
25360;DHT22;13311;51.386;0.016;2023-05-10T23:26:59;15.70;94.60
25360;DHT22;13311;51.386;0.016;2023-05-10T23:31:59;15.60;94.60
25360;DHT22;13311;51.386;0.016;2023-05-10T23:37:01;15.50;94.50
25360;DHT22;13311;51.386;0.016;2023-05-10T23:42:01;15.50;94.50
25360;DHT22;13311;51.386;0.016;2023-05-10T23:47:03;15.40;94.50
25360;DHT22;13311;51.386;0.016;2023-05-10T23:52:03;15.30;94.50
25360;DHT22;13311;51.386;0.016;2023-05-10T23:57:04;15.20;94.40
